createdAt,value
2023-02-27T00:00:03.197Z,75.81
2023-02-27T00:00:53.995Z,75.81
2023-02-27T00:01:44.992Z,75.81
2023-02-27T00:02:35.852Z,75.92
2023-02-27T00:03:26.660Z,75.92
2023-02-27T00:04:17.417Z,75.92
2023-02-27T00:05:08.211Z,75.92
2023-02-27T00:05:59.000Z,75.92
2023-02-27T00:06:49.777Z,75.92
2023-02-27T00:07:40.561Z,75.92
2023-02-27T00:08:31.355Z,75.92
2023-02-27T00:09:22.196Z,75.92
2023-02-27T00:10:12.918Z,75.92
2023-02-27T00:11:03.740Z,75.92
2023-02-27T00:11:54.481Z,75.92
2023-02-27T00:12:45.268Z,75.92
2023-02-27T00:13:36.051Z,75.81
2023-02-27T00:14:26.843Z,75.71
2023-02-27T00:15:17.632Z,75.71
2023-02-27T00:16:08.444Z,75.71
2023-02-27T00:16:59.192Z,75.71
2023-02-27T00:17:49.977Z,75.71
2023-02-27T00:18:40.755Z,75.71
2023-02-27T00:19:31.547Z,75.71
2023-02-27T00:20:22.339Z,75.81
2023-02-27T00:21:13.136Z,75.81
2023-02-27T00:22:03.912Z,75.81
2023-02-27T00:22:54.719Z,75.81
2023-02-27T00:23:45.476Z,75.81
2023-02-27T00:24:36.274Z,75.88
2023-02-27T00:25:27.060Z,75.92
2023-02-27T00:26:17.872Z,75.92
2023-02-27T00:27:08.641Z,75.88
2023-02-27T00:27:59.433Z,75.88
2023-02-27T00:28:50.217Z,75.92
2023-02-27T00:29:40.981Z,75.92
2023-02-27T00:30:31.823Z,75.92
2023-02-27T00:31:22.635Z,75.88
2023-02-27T00:32:13.446Z,75.88
2023-02-27T00:33:04.168Z,75.81
2023-02-27T00:33:54.950Z,75.78
2023-02-27T00:34:45.714Z,75.71
2023-02-27T00:35:36.490Z,75.71
2023-02-27T00:36:27.274Z,75.71
2023-02-27T00:37:18.066Z,75.71
2023-02-27T00:38:08.841Z,75.60
2023-02-27T00:38:59.620Z,75.60
2023-02-27T00:39:50.412Z,75.60
2023-02-27T00:40:41.203Z,75.60
2023-02-27T00:41:32.018Z,75.60
2023-02-27T00:42:22.772Z,75.60
2023-02-27T00:43:13.570Z,75.60
2023-02-27T00:44:04.358Z,75.60
2023-02-27T00:44:55.144Z,75.60
2023-02-27T00:45:45.938Z,75.60
2023-02-27T00:46:36.809Z,75.60
2023-02-27T00:47:27.554Z,75.60
2023-02-27T00:48:18.341Z,75.60
2023-02-27T00:49:09.129Z,75.60
2023-02-27T00:49:59.925Z,75.60
2023-02-27T00:50:50.712Z,75.71
2023-02-27T00:51:41.485Z,75.71
2023-02-27T00:52:32.268Z,75.71
2023-02-27T00:53:23.100Z,75.71
2023-02-27T00:54:13.823Z,75.81
2023-02-27T00:55:04.608Z,75.81
2023-02-27T00:55:55.397Z,75.81
2023-02-27T00:56:46.205Z,75.81
2023-02-27T00:57:37.038Z,75.92
2023-02-27T00:58:27.812Z,75.95
2023-02-27T00:59:18.846Z,75.95
2023-02-27T01:00:09.617Z,76.06
2023-02-27T01:01:00.538Z,76.06
2023-02-27T01:01:51.273Z,76.06
2023-02-27T01:02:42.168Z,76.06
2023-02-27T01:03:32.909Z,76.06
2023-02-27T01:04:23.710Z,76.06
2023-02-27T01:05:14.504Z,76.06
2023-02-27T01:06:05.278Z,76.06
2023-02-27T01:06:56.072Z,76.16
2023-02-27T01:07:46.841Z,76.16
2023-02-27T01:08:37.648Z,76.16
2023-02-27T01:09:28.420Z,76.16
2023-02-27T01:10:19.210Z,76.06
2023-02-27T01:11:10.011Z,76.16
2023-02-27T01:12:00.813Z,76.26
2023-02-27T01:12:51.581Z,76.37
2023-02-27T01:13:42.355Z,76.37
2023-02-27T01:14:33.150Z,76.37
2023-02-27T01:15:23.932Z,76.47
2023-02-27T01:16:14.749Z,76.47
2023-02-27T01:17:05.539Z,76.47
2023-02-27T01:17:56.323Z,76.47
2023-02-27T01:18:47.096Z,76.57
2023-02-27T01:19:37.890Z,76.57
2023-02-27T01:20:28.647Z,76.47
2023-02-27T01:21:19.433Z,76.47
2023-02-27T01:22:10.218Z,76.47
2023-02-27T01:23:01.002Z,76.37
2023-02-27T01:23:51.784Z,76.33
2023-02-27T01:24:42.570Z,76.26
2023-02-27T01:25:33.356Z,76.12
2023-02-27T01:26:24.144Z,76.16
2023-02-27T01:27:14.951Z,76.12
2023-02-27T01:28:05.701Z,76.12
2023-02-27T01:28:56.493Z,76.12
2023-02-27T01:29:47.282Z,76.12
2023-02-27T01:30:38.111Z,76.12
2023-02-27T01:31:29.435Z,76.12
2023-02-27T01:32:19.779Z,76.12
2023-02-27T01:33:10.576Z,76.12
2023-02-27T01:34:01.357Z,76.12
2023-02-27T01:34:52.170Z,76.12
2023-02-27T01:35:42.945Z,76.16
2023-02-27T01:36:33.747Z,76.26
2023-02-27T01:37:24.507Z,76.26
2023-02-27T01:38:15.290Z,76.26
2023-02-27T01:39:06.082Z,76.23
2023-02-27T01:39:56.867Z,76.16
2023-02-27T01:40:47.637Z,76.16
2023-02-27T01:41:38.431Z,76.12
2023-02-27T01:42:29.225Z,76.06
2023-02-27T01:43:19.992Z,76.06
2023-02-27T01:44:10.775Z,76.16
2023-02-27T01:45:01.556Z,76.16
2023-02-27T01:45:52.465Z,76.16
2023-02-27T01:46:43.197Z,76.16
2023-02-27T01:47:33.991Z,76.26
2023-02-27T01:48:24.779Z,76.26
2023-02-27T01:49:15.583Z,76.26
2023-02-27T01:50:06.364Z,76.26
2023-02-27T01:50:57.149Z,76.16
2023-02-27T01:51:47.939Z,76.06
2023-02-27T01:52:38.769Z,76.06
2023-02-27T01:53:29.488Z,76.06
2023-02-27T01:54:20.264Z,76.06
2023-02-27T01:55:11.060Z,76.06
2023-02-27T01:56:01.847Z,76.06
2023-02-27T01:56:52.632Z,76.06
2023-02-27T01:57:43.437Z,76.16
2023-02-27T01:58:34.205Z,76.06
2023-02-27T01:59:24.994Z,76.06
2023-02-27T02:00:15.782Z,76.06
2023-02-27T02:01:06.593Z,76.09
2023-02-27T02:01:57.372Z,76.09
2023-02-27T02:02:48.126Z,76.09
2023-02-27T02:03:38.909Z,76.09
2023-02-27T02:04:29.685Z,76.09
2023-02-27T02:05:20.467Z,76.09
2023-02-27T02:06:11.242Z,76.09
2023-02-27T02:07:02.056Z,75.98
2023-02-27T02:07:52.812Z,75.98
2023-02-27T02:08:43.607Z,75.98
2023-02-27T02:09:34.394Z,75.98
2023-02-27T02:10:25.174Z,75.98
2023-02-27T02:11:15.979Z,75.98
2023-02-27T02:12:06.762Z,76.09
2023-02-27T02:12:57.575Z,76.09
2023-02-27T02:13:48.332Z,76.09
2023-02-27T02:14:39.122Z,76.09
2023-02-27T02:15:29.921Z,76.20
2023-02-27T02:16:20.744Z,76.33
2023-02-27T02:17:11.495Z,76.44
2023-02-27T02:18:02.258Z,76.44
2023-02-27T02:18:53.042Z,76.54
2023-02-27T02:19:43.813Z,76.65
2023-02-27T02:20:34.603Z,76.65
2023-02-27T02:21:25.754Z,76.75
2023-02-27T02:22:16.681Z,76.65
2023-02-27T02:23:07.443Z,76.75
2023-02-27T02:23:58.215Z,76.75
2023-02-27T02:24:48.999Z,76.75
2023-02-27T02:25:39.783Z,76.75
2023-02-27T02:26:33.258Z,76.86
2023-02-27T02:27:21.503Z,76.86
2023-02-27T02:28:12.317Z,76.96
2023-02-27T02:29:03.069Z,76.96
2023-02-27T02:29:53.857Z,77.06
2023-02-27T02:30:44.712Z,77.06
2023-02-27T02:31:35.575Z,77.06
2023-02-27T02:32:26.417Z,77.06
2023-02-27T02:33:17.134Z,76.96
2023-02-27T02:34:07.914Z,76.96
2023-02-27T02:34:58.751Z,76.86
2023-02-27T02:35:49.487Z,76.86
2023-02-27T02:36:40.281Z,76.86
2023-02-27T02:37:31.067Z,76.75
2023-02-27T02:38:21.833Z,76.75
2023-02-27T02:39:12.859Z,76.75
2023-02-27T02:40:03.645Z,76.75
2023-02-27T02:40:54.433Z,76.65
2023-02-27T02:41:45.225Z,76.54
2023-02-27T02:42:36.015Z,76.54
2023-02-27T02:43:26.838Z,76.54
2023-02-27T02:44:17.599Z,76.44
2023-02-27T02:45:08.391Z,76.44
2023-02-27T02:45:59.196Z,76.57
2023-02-27T02:46:49.980Z,76.57
2023-02-27T02:47:40.772Z,76.57
2023-02-27T02:48:31.561Z,76.57
2023-02-27T02:49:22.345Z,76.57
2023-02-27T02:50:13.139Z,76.57
2023-02-27T02:51:03.918Z,76.68
2023-02-27T02:51:54.691Z,76.68
2023-02-27T02:52:45.473Z,76.68
2023-02-27T02:53:37.532Z,76.79
2023-02-27T02:54:27.111Z,76.79
2023-02-27T02:55:17.883Z,76.79
2023-02-27T02:56:08.671Z,76.79
2023-02-27T02:56:59.467Z,76.79
2023-02-27T02:57:50.255Z,76.79
2023-02-27T02:58:41.041Z,76.79
2023-02-27T02:59:31.796Z,76.79
2023-02-27T03:00:22.567Z,76.89
2023-02-27T03:01:13.386Z,76.89
2023-02-27T03:02:04.153Z,76.89
2023-02-27T03:02:54.940Z,76.89
2023-02-27T03:03:45.716Z,76.89
2023-02-27T03:04:36.609Z,76.89
2023-02-27T03:05:27.372Z,76.89
2023-02-27T03:06:18.199Z,76.89
2023-02-27T03:07:08.967Z,76.89
2023-02-27T03:07:59.748Z,76.89
2023-02-27T03:08:50.533Z,76.89
2023-02-27T03:09:41.310Z,76.79
2023-02-27T03:10:32.078Z,76.79
2023-02-27T03:11:22.872Z,76.79
2023-02-27T03:12:13.670Z,76.79
2023-02-27T03:13:04.451Z,76.79
2023-02-27T03:13:55.260Z,76.79
2023-02-27T03:14:46.020Z,76.79
2023-02-27T03:15:36.836Z,76.89
2023-02-27T03:16:27.630Z,76.79
2023-02-27T03:17:18.382Z,76.89
2023-02-27T03:18:09.170Z,76.89
2023-02-27T03:18:59.953Z,76.89
2023-02-27T03:19:50.741Z,76.89
2023-02-27T03:20:41.515Z,77.03
2023-02-27T03:21:32.306Z,77.03
2023-02-27T03:22:23.087Z,77.14
2023-02-27T03:23:13.898Z,77.14
2023-02-27T03:24:04.676Z,77.24
2023-02-27T03:24:55.480Z,77.24
2023-02-27T03:25:46.332Z,77.24
2023-02-27T03:26:37.110Z,77.24
2023-02-27T03:27:27.901Z,77.34
2023-02-27T03:28:18.695Z,77.34
2023-02-27T03:29:09.500Z,77.45
2023-02-27T03:30:00.275Z,77.45
2023-02-27T03:30:51.233Z,77.55
2023-02-27T03:31:42.068Z,77.66
2023-02-27T03:32:32.891Z,77.66
2023-02-27T03:33:23.623Z,77.66
2023-02-27T03:34:14.408Z,77.66
2023-02-27T03:35:05.193Z,77.66
2023-02-27T03:35:55.973Z,77.66
2023-02-27T03:36:46.756Z,77.55
2023-02-27T03:37:37.535Z,77.55
2023-02-27T03:38:28.320Z,77.55
2023-02-27T03:39:19.109Z,77.55
2023-02-27T03:40:09.887Z,77.55
2023-02-27T03:41:00.681Z,77.66
2023-02-27T03:41:51.491Z,77.66
2023-02-27T03:42:42.294Z,77.66
2023-02-27T03:43:33.069Z,77.66
2023-02-27T03:44:23.882Z,77.66
2023-02-27T03:45:14.650Z,77.66
2023-02-27T03:46:05.475Z,77.55
2023-02-27T03:46:56.225Z,77.55
2023-02-27T03:47:47.018Z,77.55
2023-02-27T03:48:37.800Z,77.55
2023-02-27T03:49:28.571Z,77.66
2023-02-27T03:50:19.442Z,77.66
2023-02-27T03:51:10.212Z,77.66
2023-02-27T03:52:01.004Z,77.66
2023-02-27T03:52:51.789Z,77.66
2023-02-27T03:53:42.599Z,77.76
2023-02-27T03:54:33.388Z,77.76
2023-02-27T03:55:24.169Z,77.76
2023-02-27T03:56:14.957Z,77.87
2023-02-27T03:57:05.749Z,77.87
2023-02-27T03:57:56.517Z,77.97
2023-02-27T03:58:47.298Z,78.08
2023-02-27T03:59:38.132Z,78.18
2023-02-27T04:00:28.917Z,78.29
2023-02-27T04:01:19.697Z,78.29
2023-02-27T04:02:10.492Z,78.29
2023-02-27T04:03:01.338Z,78.18
2023-02-27T04:03:52.080Z,78.18
2023-02-27T04:04:42.853Z,78.18
2023-02-27T04:05:33.633Z,78.18
2023-02-27T04:06:24.420Z,78.18
2023-02-27T04:07:15.211Z,78.18
2023-02-27T04:08:06.009Z,78.18
2023-02-27T04:08:56.802Z,78.29
2023-02-27T04:09:47.563Z,78.29
2023-02-27T04:10:38.344Z,78.29
2023-02-27T04:11:29.519Z,78.29
2023-02-27T04:12:20.363Z,78.29
2023-02-27T04:13:11.172Z,78.18
2023-02-27T04:14:01.948Z,78.18
2023-02-27T04:14:52.759Z,78.18
2023-02-27T04:15:43.557Z,78.22
2023-02-27T04:16:34.318Z,78.22
2023-02-27T04:17:25.150Z,78.08
2023-02-27T04:18:15.909Z,77.97
2023-02-27T04:19:06.709Z,78.01
2023-02-27T04:19:57.529Z,78.01
2023-02-27T04:20:48.317Z,78.01
2023-02-27T04:21:39.108Z,78.11
2023-02-27T04:22:29.879Z,78.11
2023-02-27T04:23:20.800Z,78.22
2023-02-27T04:24:11.579Z,78.22
2023-02-27T04:25:02.398Z,78.32
2023-02-27T04:25:53.164Z,78.22
2023-02-27T04:26:43.943Z,78.22
2023-02-27T04:27:34.735Z,78.11
2023-02-27T04:28:25.497Z,78.11
2023-02-27T04:29:16.294Z,78.11
2023-02-27T04:30:07.109Z,78.11
2023-02-27T04:30:57.961Z,78.11
2023-02-27T04:31:48.875Z,78.11
2023-02-27T04:32:39.826Z,78.11
2023-02-27T04:33:30.582Z,78.11
2023-02-27T04:34:21.378Z,78.01
2023-02-27T04:35:12.168Z,78.01
2023-02-27T04:36:02.943Z,78.01
2023-02-27T04:36:53.751Z,78.11
2023-02-27T04:37:44.536Z,78.11
2023-02-27T04:38:35.310Z,78.22
2023-02-27T04:39:26.096Z,78.32
2023-02-27T04:40:16.892Z,78.32
2023-02-27T04:41:07.682Z,78.43
2023-02-27T04:41:58.461Z,78.53
2023-02-27T04:42:49.506Z,78.53
2023-02-27T04:43:40.295Z,78.64
2023-02-27T04:44:31.083Z,78.74
2023-02-27T04:45:21.896Z,78.85
2023-02-27T04:46:12.637Z,78.85
2023-02-27T04:47:03.418Z,78.85
2023-02-27T04:47:54.207Z,78.95
2023-02-27T04:48:45.001Z,78.95
2023-02-27T04:49:35.794Z,78.95
2023-02-27T04:50:26.577Z,78.95
2023-02-27T04:51:17.370Z,78.95
2023-02-27T04:52:08.142Z,78.95
2023-02-27T04:52:58.921Z,78.95
2023-02-27T04:53:49.704Z,78.95
2023-02-27T04:54:40.497Z,78.95
2023-02-27T04:55:31.257Z,78.95
2023-02-27T04:56:22.029Z,79.05
2023-02-27T04:57:12.788Z,79.05
2023-02-27T04:58:03.548Z,79.16
2023-02-27T04:58:54.312Z,79.05
2023-02-27T04:59:45.075Z,79.16
2023-02-27T05:00:35.834Z,79.16
2023-02-27T05:01:26.861Z,79.27
2023-02-27T05:02:17.895Z,79.27
2023-02-27T05:03:08.683Z,79.27
2023-02-27T05:04:00.542Z,79.27
2023-02-27T05:04:50.088Z,79.27
2023-02-27T05:05:40.854Z,79.27
2023-02-27T05:06:31.617Z,79.27
2023-02-27T05:07:22.393Z,79.37
2023-02-27T05:08:13.136Z,79.37
2023-02-27T05:09:03.902Z,79.37
2023-02-27T05:09:54.668Z,79.37
2023-02-27T05:10:45.430Z,79.37
2023-02-27T05:11:36.195Z,79.37
2023-02-27T05:12:26.967Z,79.37
2023-02-27T05:13:17.732Z,79.37
2023-02-27T05:14:08.488Z,79.27
2023-02-27T05:14:59.257Z,79.27
2023-02-27T05:15:50.084Z,79.27
2023-02-27T05:16:40.837Z,79.27
2023-02-27T05:17:31.551Z,79.16
2023-02-27T05:18:22.322Z,79.16
2023-02-27T05:19:13.063Z,79.16
2023-02-27T05:20:03.833Z,79.16
2023-02-27T05:20:54.573Z,79.05
2023-02-27T05:21:45.340Z,79.05
2023-02-27T05:22:36.089Z,79.05
2023-02-27T05:23:26.874Z,79.05
2023-02-27T05:24:17.617Z,78.95
2023-02-27T05:25:08.369Z,78.95
2023-02-27T05:25:59.122Z,78.95
2023-02-27T05:26:49.901Z,78.95
2023-02-27T05:27:40.669Z,78.95
2023-02-27T05:28:31.427Z,79.05
2023-02-27T05:29:22.190Z,79.05
2023-02-27T05:30:12.967Z,79.05
2023-02-27T05:31:03.759Z,79.05
2023-02-27T05:31:54.631Z,79.05
2023-02-27T05:32:45.414Z,79.16
2023-02-27T05:33:36.175Z,79.16
2023-02-27T05:34:26.941Z,79.27
2023-02-27T05:35:17.694Z,79.27
2023-02-27T05:36:08.548Z,79.27
2023-02-27T05:36:59.275Z,79.37
2023-02-27T05:37:50.059Z,79.47
2023-02-27T05:38:40.847Z,79.47
2023-02-27T05:39:31.647Z,79.61
2023-02-27T05:40:22.784Z,79.58
2023-02-27T05:41:13.544Z,79.72
2023-02-27T05:42:04.320Z,79.72
2023-02-27T05:42:55.056Z,79.68
2023-02-27T05:43:45.942Z,79.79
2023-02-27T05:44:36.816Z,79.79
2023-02-27T05:45:27.677Z,79.68
2023-02-27T05:46:18.950Z,79.79
2023-02-27T05:47:09.740Z,79.68
2023-02-27T05:48:00.509Z,79.68
2023-02-27T05:48:51.451Z,79.68
2023-02-27T05:49:42.183Z,79.68
2023-02-27T05:50:33.059Z,79.68
2023-02-27T05:51:23.806Z,79.58
2023-02-27T05:52:14.408Z,79.58
2023-02-27T05:53:05.270Z,79.47
2023-02-27T05:53:56.181Z,79.37
2023-02-27T05:54:47.055Z,79.37
2023-02-27T05:55:37.917Z,79.27
2023-02-27T05:56:29.084Z,79.16
2023-02-27T05:57:19.669Z,79.20
2023-02-27T05:58:10.542Z,79.09
2023-02-27T05:59:01.407Z,79.09
2023-02-27T05:59:52.272Z,79.09
2023-02-27T06:00:43.138Z,79.09
2023-02-27T06:01:34.023Z,79.09
2023-02-27T06:02:24.901Z,79.20
2023-02-27T06:03:15.788Z,79.30
2023-02-27T06:04:06.627Z,79.30
2023-02-27T06:04:57.512Z,79.30
2023-02-27T06:05:48.474Z,79.30
2023-02-27T06:06:39.358Z,79.30
2023-02-27T06:07:30.242Z,79.30
2023-02-27T06:08:21.124Z,79.30
2023-02-27T06:09:12.006Z,79.20
2023-02-27T06:10:02.889Z,79.20
2023-02-27T06:10:53.779Z,79.20
2023-02-27T06:11:44.725Z,79.30
2023-02-27T06:12:35.556Z,79.30
2023-02-27T06:13:26.457Z,79.30
2023-02-27T06:14:17.341Z,79.30
2023-02-27T06:15:08.231Z,79.30
2023-02-27T06:15:59.111Z,79.30
2023-02-27T06:16:50.073Z,79.30
2023-02-27T06:17:40.957Z,79.30
2023-02-27T06:18:31.800Z,79.30
2023-02-27T06:19:22.655Z,79.30
2023-02-27T06:20:13.534Z,79.30
2023-02-27T06:21:04.419Z,79.41
2023-02-27T06:21:55.294Z,79.51
2023-02-27T06:22:46.167Z,79.51
2023-02-27T06:23:37.056Z,79.72
2023-02-27T06:24:27.920Z,79.83
2023-02-27T06:25:18.796Z,79.93
2023-02-27T06:26:09.678Z,80.04
2023-02-27T06:27:00.580Z,80.14
2023-02-27T06:27:51.479Z,80.24
2023-02-27T06:28:42.362Z,80.24
2023-02-27T06:29:33.247Z,80.35
2023-02-27T06:30:24.143Z,80.46
2023-02-27T06:31:15.059Z,80.46
2023-02-27T06:32:06.001Z,80.56
2023-02-27T06:32:56.866Z,80.56
2023-02-27T06:33:47.753Z,80.56
2023-02-27T06:34:38.651Z,80.66
2023-02-27T06:35:29.550Z,80.66
2023-02-27T06:36:20.458Z,80.66
2023-02-27T06:37:11.345Z,80.66
2023-02-27T06:38:02.227Z,80.66
2023-02-27T06:38:53.109Z,80.77
2023-02-27T06:39:44.006Z,80.66
2023-02-27T06:40:35.025Z,80.66
2023-02-27T06:41:25.860Z,80.66
2023-02-27T06:42:16.753Z,80.66
2023-02-27T06:43:07.714Z,80.66
2023-02-27T06:43:58.614Z,80.66
2023-02-27T06:44:49.514Z,80.77
2023-02-27T06:45:40.419Z,80.77
2023-02-27T06:46:31.377Z,80.77
2023-02-27T06:47:22.241Z,80.77
2023-02-27T06:48:13.129Z,80.77
2023-02-27T06:49:04.025Z,80.77
2023-02-27T06:49:54.915Z,80.66
2023-02-27T06:50:45.811Z,80.77
2023-02-27T06:51:36.745Z,80.77
2023-02-27T06:52:27.655Z,80.73
2023-02-27T06:53:18.593Z,80.63
2023-02-27T06:54:09.466Z,80.63
2023-02-27T06:55:00.373Z,80.63
2023-02-27T06:55:51.282Z,80.52
2023-02-27T06:56:42.213Z,80.52
2023-02-27T06:57:33.102Z,80.52
2023-02-27T06:58:24.024Z,80.42
2023-02-27T06:59:14.920Z,80.42
2023-02-27T07:00:05.829Z,80.42
2023-02-27T07:00:56.746Z,80.42
2023-02-27T07:01:47.730Z,80.42
2023-02-27T07:02:38.601Z,80.42
2023-02-27T07:03:29.511Z,80.52
2023-02-27T07:04:20.436Z,80.52
2023-02-27T07:05:11.318Z,80.42
2023-02-27T07:06:02.247Z,80.42
2023-02-27T07:07:33.841Z,80.42
2023-02-27T07:07:45.136Z,80.42
2023-02-27T07:08:34.760Z,80.42
2023-02-27T07:09:25.672Z,80.42
2023-02-27T07:10:16.600Z,80.42
2023-02-27T07:11:07.492Z,80.42
2023-02-27T07:11:58.391Z,80.42
2023-02-27T07:12:49.319Z,80.42
2023-02-27T07:13:40.223Z,80.38
2023-02-27T07:14:31.128Z,80.38
2023-02-27T07:15:22.049Z,80.38
2023-02-27T07:16:12.996Z,80.38
2023-02-27T07:17:03.855Z,80.38
2023-02-27T07:17:54.880Z,80.38
2023-02-27T07:18:45.702Z,80.38
2023-02-27T07:19:36.646Z,80.38
2023-02-27T07:20:27.533Z,80.38
2023-02-27T07:21:18.453Z,80.38
2023-02-27T07:22:09.390Z,80.49
2023-02-27T07:23:00.319Z,80.49
2023-02-27T07:23:51.239Z,80.49
2023-02-27T07:24:42.143Z,80.59
2023-02-27T07:25:33.066Z,80.69
2023-02-27T07:26:23.963Z,80.69
2023-02-27T07:27:14.887Z,80.80
2023-02-27T07:28:05.884Z,80.76
2023-02-27T07:28:56.729Z,80.87
2023-02-27T07:29:47.634Z,80.97
2023-02-27T07:30:38.558Z,81.07
2023-02-27T07:31:29.528Z,81.18
2023-02-27T07:32:20.418Z,81.29
2023-02-27T07:33:11.315Z,81.39
2023-02-27T07:34:02.200Z,81.60
2023-02-27T07:34:53.128Z,81.70
2023-02-27T07:35:44.056Z,81.81
2023-02-27T07:36:34.960Z,81.92
2023-02-27T07:37:27.958Z,82.12
2023-02-27T07:38:16.585Z,82.23
2023-02-27T07:39:07.477Z,82.43
2023-02-27T07:39:58.393Z,82.65
2023-02-27T07:40:49.311Z,82.71
2023-02-27T07:41:40.230Z,82.82
2023-02-27T07:42:31.146Z,82.82
2023-02-27T07:43:22.069Z,82.92
2023-02-27T07:44:12.986Z,82.92
2023-02-27T07:45:03.898Z,83.03
2023-02-27T07:45:54.810Z,83.13
2023-02-27T07:46:45.753Z,83.30
2023-02-27T07:47:36.638Z,83.40
2023-02-27T07:48:27.555Z,83.51
2023-02-27T07:49:18.437Z,83.72
2023-02-27T07:50:09.353Z,83.83
2023-02-27T07:51:00.263Z,83.93
2023-02-27T07:51:51.166Z,84.03
2023-02-27T07:52:42.090Z,84.24
2023-02-27T07:53:32.996Z,84.34
2023-02-27T07:54:23.934Z,84.41
2023-02-27T07:55:14.813Z,84.52
2023-02-27T07:56:05.711Z,84.52
2023-02-27T07:56:56.626Z,84.52
2023-02-27T07:57:47.526Z,84.62
2023-02-27T07:58:38.440Z,84.62
2023-02-27T07:59:29.350Z,84.73
2023-02-27T08:00:20.287Z,84.69
2023-02-27T08:01:11.192Z,84.79
2023-02-27T08:02:02.097Z,84.89
2023-02-27T08:02:53.090Z,85.00
2023-02-27T08:03:43.956Z,85.11
2023-02-27T08:04:34.885Z,85.21
2023-02-27T08:05:29.567Z,85.42
2023-02-27T08:06:16.779Z,85.59
2023-02-27T08:07:07.700Z,85.69
2023-02-27T08:07:58.618Z,85.80
2023-02-27T08:08:49.517Z,86.00
2023-02-27T08:09:40.419Z,86.11
2023-02-27T08:10:31.336Z,86.21
2023-02-27T08:11:22.233Z,86.28
2023-02-27T08:12:13.162Z,86.38
2023-02-27T08:13:04.090Z,86.49
2023-02-27T08:14:00.632Z,86.59
2023-02-27T08:14:46.897Z,86.69
2023-02-27T08:15:36.592Z,86.69
2023-02-27T08:16:28.154Z,86.76
2023-02-27T08:17:18.653Z,86.76
2023-02-27T08:18:09.593Z,86.87
2023-02-27T08:19:00.530Z,86.76
2023-02-27T08:19:51.418Z,86.76
2023-02-27T08:20:42.335Z,86.76
2023-02-27T08:21:33.245Z,86.72
2023-02-27T08:22:24.144Z,86.72
2023-02-27T08:23:15.051Z,86.83
2023-02-27T08:24:05.971Z,86.93
2023-02-27T08:24:56.866Z,87.04
2023-02-27T08:25:47.778Z,87.10
2023-02-27T08:26:38.693Z,87.20
2023-02-27T08:27:29.591Z,87.30
2023-02-27T08:28:20.523Z,87.41
2023-02-27T08:29:11.431Z,87.41
2023-02-27T08:30:02.340Z,87.41
2023-02-27T08:30:53.302Z,87.37
2023-02-27T08:31:44.346Z,87.48
2023-02-27T08:32:35.248Z,87.48
2023-02-27T08:33:26.140Z,87.33
2023-02-27T08:34:17.066Z,87.23
2023-02-27T08:35:08.178Z,86.98
2023-02-27T08:35:59.139Z,86.77
2023-02-27T08:36:49.990Z,86.57
2023-02-27T08:37:40.913Z,86.32
2023-02-27T08:38:31.797Z,86.21
2023-02-27T08:39:22.720Z,86.00
2023-02-27T08:40:13.619Z,85.65
2023-02-27T08:41:04.526Z,85.44
2023-02-27T08:41:55.458Z,85.20
2023-02-27T08:42:46.369Z,84.99
2023-02-27T08:43:37.267Z,84.68
2023-02-27T08:44:28.175Z,84.43
2023-02-27T08:45:19.076Z,84.12
2023-02-27T08:46:10.120Z,83.81
2023-02-27T08:47:00.979Z,83.56
2023-02-27T08:47:51.907Z,83.36
2023-02-27T08:48:42.844Z,83.11
2023-02-27T08:49:33.764Z,82.80
2023-02-27T08:50:24.694Z,82.45
2023-02-27T08:51:15.598Z,82.14
2023-02-27T08:52:06.531Z,81.82
2023-02-27T08:52:57.463Z,81.58
2023-02-27T08:53:48.400Z,81.34
2023-02-27T08:54:39.330Z,81.40
2023-02-27T08:55:30.269Z,82.22
2023-02-27T08:56:21.191Z,82.38
2023-02-27T08:57:12.141Z,80.37
2023-02-27T08:58:03.096Z,77.07
2023-02-27T08:58:54.045Z,73.64
2023-02-27T08:59:45.033Z,70.39
2023-02-27T09:00:36.009Z,68.07
2023-02-27T09:01:27.285Z,66.50
2023-02-27T09:02:17.985Z,65.37
2023-02-27T09:03:09.036Z,64.83
2023-02-27T09:03:59.813Z,64.39
2023-02-27T09:04:50.773Z,63.85
2023-02-27T09:05:41.692Z,63.31
2023-02-27T09:06:33.070Z,62.74
2023-02-27T09:07:23.438Z,62.04
2023-02-27T09:08:14.333Z,60.86
2023-02-27T09:09:05.284Z,59.35
2023-02-27T09:09:56.218Z,57.64
2023-02-27T09:10:47.168Z,55.73
2023-02-27T09:11:38.863Z,53.83
2023-02-27T09:12:29.205Z,52.13
2023-02-27T09:13:20.154Z,50.44
2023-02-27T09:14:11.085Z,48.78
2023-02-27T09:15:02.036Z,47.40
2023-02-27T09:15:52.996Z,46.25
2023-02-27T09:16:44.032Z,45.09
2023-02-27T09:17:34.919Z,44.04
2023-02-27T09:18:25.849Z,43.00
2023-02-27T09:19:16.822Z,41.96
2023-02-27T09:20:07.748Z,40.83
2023-02-27T09:20:58.656Z,40.19
2023-02-27T09:21:49.598Z,39.37
2023-02-27T09:22:40.558Z,38.73
2023-02-27T09:23:31.479Z,37.71
2023-02-27T09:24:22.402Z,37.19
2023-02-27T09:25:13.343Z,36.38
2023-02-27T09:26:04.282Z,35.86
2023-02-27T09:26:55.207Z,35.54
2023-02-27T09:27:46.152Z,35.13
2023-02-27T09:28:37.080Z,34.80
2023-02-27T09:29:28.026Z,34.28
2023-02-27T09:30:18.950Z,33.56
2023-02-27T09:31:09.899Z,33.15
2023-02-27T09:32:00.962Z,32.74
2023-02-27T09:32:51.982Z,32.42
2023-02-27T09:33:42.869Z,31.91
2023-02-27T09:34:33.799Z,31.40
2023-02-27T09:35:24.763Z,31.09
2023-02-27T09:36:15.671Z,30.68
2023-02-27T09:37:06.623Z,30.26
2023-02-27T09:37:57.554Z,29.85
2023-02-27T09:38:48.484Z,29.44
2023-02-27T09:39:39.416Z,29.23
2023-02-27T09:40:30.367Z,29.11
2023-02-27T09:41:21.305Z,28.61
2023-02-27T09:42:12.245Z,28.22
2023-02-27T09:43:03.207Z,28.14
2023-02-27T09:43:54.116Z,28.35
2023-02-27T09:44:46.962Z,28.53
2023-02-27T09:45:35.808Z,28.22
2023-02-27T09:46:27.039Z,27.84
2023-02-27T09:47:17.444Z,27.16
2023-02-27T09:48:08.393Z,27.39
2023-02-27T09:48:59.332Z,27.62
2023-02-27T09:49:50.274Z,27.75
2023-02-27T09:50:41.251Z,28.06
2023-02-27T09:51:32.202Z,28.34
2023-02-27T09:52:23.194Z,28.25
2023-02-27T09:53:14.380Z,28.15
2023-02-27T09:54:05.095Z,28.05
2023-02-27T09:54:56.067Z,28.05
2023-02-27T09:55:46.986Z,27.95
2023-02-27T09:56:37.945Z,28.05
2023-02-27T09:57:28.882Z,28.36
2023-02-27T09:58:19.836Z,28.36
2023-02-27T09:59:10.771Z,28.36
2023-02-27T10:00:01.711Z,28.36
2023-02-27T10:00:52.655Z,28.64
2023-02-27T10:01:43.596Z,28.25
2023-02-27T10:02:34.570Z,28.06
2023-02-27T10:03:25.520Z,27.87
2023-02-27T10:04:16.398Z,28.09
2023-02-27T10:05:07.326Z,28.30
2023-02-27T10:05:58.280Z,28.63
2023-02-27T10:06:49.189Z,28.85
2023-02-27T10:07:40.137Z,29.15
2023-02-27T10:08:31.076Z,28.97
2023-02-27T10:09:22.047Z,29.10
2023-02-27T10:10:12.960Z,29.62
2023-02-27T10:11:03.892Z,30.26
2023-02-27T10:11:54.821Z,30.68
2023-02-27T10:12:45.784Z,31.20
2023-02-27T10:13:36.706Z,31.63
2023-02-27T10:14:27.630Z,32.05
2023-02-27T10:15:18.562Z,32.48
2023-02-27T10:16:09.487Z,32.70
2023-02-27T10:17:00.458Z,33.03
2023-02-27T10:17:51.374Z,33.67
2023-02-27T10:18:42.321Z,34.28
2023-02-27T10:19:33.262Z,34.62
2023-02-27T10:20:24.203Z,34.94
2023-02-27T10:21:15.186Z,35.58
2023-02-27T10:22:06.094Z,36.47
2023-02-27T10:22:57.031Z,36.47
2023-02-27T10:23:47.975Z,36.46
2023-02-27T10:24:38.910Z,36.22
2023-02-27T10:25:32.096Z,35.90
2023-02-27T10:26:20.815Z,35.36
2023-02-27T10:27:11.763Z,34.41
2023-02-27T10:28:02.699Z,33.77
2023-02-27T10:28:53.657Z,33.05
2023-02-27T10:29:44.574Z,32.64
2023-02-27T10:30:35.605Z,32.12
2023-02-27T10:31:26.858Z,31.73
2023-02-27T10:32:17.473Z,31.53
2023-02-27T10:33:08.362Z,31.54
2023-02-27T10:33:59.287Z,31.76
2023-02-27T10:34:50.227Z,31.98
2023-02-27T10:35:41.196Z,32.39
2023-02-27T10:36:34.467Z,32.59
2023-02-27T10:37:23.227Z,32.59
2023-02-27T10:38:14.156Z,32.71
2023-02-27T10:39:05.092Z,32.81
2023-02-27T10:39:56.023Z,32.91
2023-02-27T10:40:46.969Z,32.73
2023-02-27T10:41:38.050Z,32.93
2023-02-27T10:42:28.936Z,33.25
2023-02-27T10:43:19.874Z,33.26
2023-02-27T10:44:10.808Z,33.38
2023-02-27T10:45:01.748Z,33.50
2023-02-27T10:45:52.715Z,33.61
2023-02-27T10:46:43.697Z,34.03
2023-02-27T10:47:34.586Z,34.37
2023-02-27T10:48:25.516Z,34.69
2023-02-27T10:49:18.726Z,35.01
2023-02-27T10:50:07.526Z,35.53
2023-02-27T10:50:58.459Z,36.15
2023-02-27T10:51:49.434Z,36.58
2023-02-27T10:52:42.512Z,37.00
2023-02-27T10:53:31.006Z,37.32
2023-02-27T10:54:21.940Z,37.74